Roadside, Pennsylvania
Current Conditions -  °F | °C
As of 9:53 PM on Saturday 20 Dec 2014 (Local Time) from KRYT Reporting Station
Overcast Overcast  
Wind Chill: -2°   Ceiling: 11000
Heat Index: -2°   Visibility: 9mi
Dew Point: -6°   Wind: 0mph
Humidity: 75%   Direction: NA
Pressure: 30.24"   Gusts: NA
Location:  39.7777°N, 77.5693°W
Report Text: KRYT 210253Z AUTO 00000KT 9SM OVC110 M02/M06 A3024 RMK AO2 SLP261 T10171056 53001 $
Loading
Personal Weather Stations






























Interactive Weather Map New forecast layout! Learn more

10-Day Weather Forecast

Advertisements
Track Severe Weather on mobile